Saint-Bruno-De-Montarville, Canada
Current Conditions -  °F | °C
As of 5:00 PM on Thursday 23 Oct 2014 (Local Time) from CYHU Reporting Station
Light Rain Light Rain  
Wind Chill: 37°   Ceiling: 3700
Heat Index: 45°   Visibility: 9mi
Dew Point: 41°   Wind: 16mph
Humidity: 87%   Direction: 30°NNE
Pressure: 30"   Gusts: 25mph
Location:  45.53°N, 73.35°W
Report Text: CYHU 232100Z AUTO 03014G22KT 9SM -RA FEW013 SCT030 OVC037 07/05 A3000 RMK PCPN 1.5MM PAST HR SLP160
Loading
Personal Weather Stations






























Interactive Weather Map
Tropical Storm Tracking
New forecast layout! Learn more

10-Day Weather Forecast

Advertisements
Track Severe Weather on mobile